createdAt,value
2023-05-14T00:01:04.087Z,94205.75
2023-05-14T00:03:31.094Z,94218.38
2023-05-14T00:05:58.393Z,94195.56
2023-05-14T00:08:25.102Z,94197.25
2023-05-14T00:10:52.273Z,94196.16
2023-05-14T00:13:18.955Z,94189.81
2023-05-14T00:15:45.669Z,94182.09
2023-05-14T00:18:12.483Z,94187.13
2023-05-14T00:20:39.242Z,94174.72
2023-05-14T00:23:06.128Z,94180.84
2023-05-14T00:25:32.816Z,94181.97
2023-05-14T00:27:59.449Z,94174.25
2023-05-14T00:30:26.303Z,94175.50
2023-05-14T00:32:53.581Z,94177.38
2023-05-14T00:35:21.566Z,94169.53
2023-05-14T00:37:48.289Z,94170.31
2023-05-14T00:40:15.079Z,94173.78
2023-05-14T00:42:41.752Z,94171.56
2023-05-14T00:45:08.972Z,94173.78
2023-05-14T00:47:36.529Z,94180.84
2023-05-14T00:50:04.670Z,94179.63
2023-05-14T00:52:32.201Z,94166.75
2023-05-14T00:54:59.486Z,94168.44
2023-05-14T00:57:26.644Z,94178.25
2023-05-14T00:59:53.993Z,94171.53
2023-05-14T01:02:20.782Z,94165.06
2023-05-14T01:04:47.485Z,94180.03
2023-05-14T01:07:24.607Z,94177.03
2023-05-14T01:10:08.904Z,94186.63
2023-05-14T01:12:44.132Z,94178.59
2023-05-14T01:15:23.830Z,94169.38
2023-05-14T01:17:56.690Z,94176.56
2023-05-14T01:20:23.801Z,94169.63
2023-05-14T01:22:50.648Z,94166.81
2023-05-14T01:25:17.675Z,94176.44
2023-05-14T01:28:17.994Z,94171.06
2023-05-14T01:31:07.072Z,94164.19
2023-05-14T01:33:35.769Z,94171.72
2023-05-14T01:36:03.737Z,94156.63
2023-05-14T01:38:33.945Z,94152.38
2023-05-14T01:41:01.559Z,94163.34
2023-05-14T01:43:29.181Z,94158.31
2023-05-14T01:45:56.249Z,94150.56
2023-05-14T01:48:22.911Z,94155.13
2023-05-14T01:50:49.590Z,94150.09
2023-05-14T01:53:16.245Z,94152.13
2023-05-14T01:55:42.952Z,94159.84
2023-05-14T01:58:09.662Z,94151.88
2023-05-14T02:00:36.341Z,94160.50
2023-05-14T02:03:03.043Z,94154.34
2023-05-14T02:05:29.704Z,94149.66
2023-05-14T02:07:56.363Z,94147.03
2023-05-14T02:10:23.167Z,94150.94
2023-05-14T02:12:50.118Z,94157.53
2023-05-14T02:15:16.863Z,94147.94
2023-05-14T02:17:43.579Z,94136.84
2023-05-14T02:20:11.491Z,94159.75
2023-05-14T02:22:38.347Z,94152.00
2023-05-14T02:25:05.568Z,94152.31
2023-05-14T02:27:32.244Z,94150.09
2023-05-14T02:30:00.846Z,94152.78
2023-05-14T02:32:28.612Z,94144.94
2023-05-14T02:34:55.496Z,94143.84
2023-05-14T02:37:22.350Z,94140.22
2023-05-14T02:39:49.491Z,94155.94
2023-05-14T02:42:16.188Z,94159.72
2023-05-14T02:44:42.911Z,94155.31
2023-05-14T02:47:10.858Z,94149.50
2023-05-14T02:49:37.565Z,94161.47
2023-05-14T02:52:04.435Z,94155.31
2023-05-14T02:54:31.076Z,94156.44
2023-05-14T02:56:57.780Z,94150.81
2023-05-14T02:59:24.942Z,94158.84
2023-05-14T03:01:52.244Z,94154.03
2023-05-14T03:04:19.545Z,94146.66
2023-05-14T03:06:46.187Z,94150.44
2023-05-14T03:09:13.001Z,94141.00
2023-05-14T03:11:39.697Z,94136.44
2023-05-14T03:14:06.369Z,94151.06
2023-05-14T03:16:33.071Z,94144.16
2023-05-14T03:18:59.905Z,94138.19
2023-05-14T03:21:27.346Z,94141.34
2023-05-14T03:23:54.017Z,94144.81
2023-05-14T03:26:21.690Z,94134.16
2023-05-14T03:28:48.740Z,94138.97
2023-05-14T03:31:15.518Z,94125.88
2023-05-14T03:33:42.327Z,94131.03
2023-05-14T03:36:09.246Z,94133.25
2023-05-14T03:38:35.910Z,94132.66
2023-05-14T03:41:02.541Z,94127.31
2023-05-14T03:43:29.471Z,94130.31
2023-05-14T03:45:56.233Z,94132.84
2023-05-14T03:48:23.044Z,94133.94
2023-05-14T03:50:49.816Z,94132.06
2023-05-14T03:53:16.840Z,94125.47
2023-05-14T03:55:45.444Z,94124.81
2023-05-14T03:58:14.301Z,94133.91
2023-05-14T04:00:42.477Z,94136.06
2023-05-14T04:03:11.261Z,94136.41
2023-05-14T04:05:38.079Z,94131.88
2023-05-14T04:08:05.120Z,94141.16
2023-05-14T04:10:32.329Z,94136.72
2023-05-14T04:13:00.352Z,94143.09
2023-05-14T04:15:31.413Z,94134.97
2023-05-14T04:17:58.101Z,94137.75
2023-05-14T04:20:24.956Z,94133.72
2023-05-14T04:22:53.472Z,94139.19
2023-05-14T04:25:20.258Z,94136.63
2023-05-14T04:27:46.939Z,94130.16
2023-05-14T04:30:13.784Z,94134.88
2023-05-14T04:32:40.852Z,94128.09
2023-05-14T04:35:09.276Z,94134.69
2023-05-14T04:37:36.120Z,94129.13
2023-05-14T04:40:03.041Z,94122.88
2023-05-14T04:42:29.706Z,94127.91
2023-05-14T04:44:56.404Z,94132.16
2023-05-14T04:47:23.215Z,94127.91
2023-05-14T04:49:49.959Z,94127.56
2023-05-14T04:52:16.629Z,94113.00
2023-05-14T04:54:43.349Z,94134.50
2023-05-14T04:57:10.040Z,94132.28
2023-05-14T04:59:36.740Z,94132.78
2023-05-14T05:02:03.519Z,94132.34
2023-05-14T05:04:30.205Z,94132.00
2023-05-14T05:06:56.824Z,94138.94
2023-05-14T05:09:23.581Z,94130.13
2023-05-14T05:11:50.302Z,94134.34
2023-05-14T05:14:17.406Z,94133.50
2023-05-14T05:16:44.949Z,94137.88
2023-05-14T05:19:11.767Z,94127.47
2023-05-14T05:21:40.884Z,94118.41
2023-05-14T05:24:08.651Z,94121.22
2023-05-14T05:26:38.284Z,94126.50
2023-05-14T05:29:05.567Z,94122.19
2023-05-14T05:31:32.666Z,94120.94
2023-05-14T05:34:00.512Z,94129.81
2023-05-14T05:36:27.500Z,94131.69
2023-05-14T05:38:54.241Z,94121.44
2023-05-14T05:41:20.893Z,94115.09
2023-05-14T05:43:47.525Z,94121.56
2023-05-14T05:46:14.256Z,94121.25
2023-05-14T05:48:40.967Z,94129.19
2023-05-14T05:51:07.692Z,94131.44
2023-05-14T05:53:34.315Z,94127.97
2023-05-14T05:56:01.021Z,94134.44
2023-05-14T05:58:27.648Z,94132.53
2023-05-14T06:00:55.104Z,94121.25
2023-05-14T06:03:22.278Z,94134.91
2023-05-14T06:05:49.161Z,94138.03
2023-05-14T06:08:16.201Z,94126.84
2023-05-14T06:10:42.921Z,94125.75
2023-05-14T06:13:09.661Z,94135.00
2023-05-14T06:15:36.318Z,94137.16
2023-05-14T06:18:03.030Z,94129.56
2023-05-14T06:20:29.887Z,94135.81
2023-05-14T06:22:56.636Z,94133.19
2023-05-14T06:25:23.313Z,94130.31
2023-05-14T06:27:49.982Z,94133.22
2023-05-14T06:30:16.669Z,94147.56
2023-05-14T06:32:43.386Z,94139.63
2023-05-14T06:35:10.466Z,94146.66
2023-05-14T06:37:37.168Z,94136.28
2023-05-14T06:40:04.292Z,94138.50
2023-05-14T06:42:30.963Z,94146.44
2023-05-14T06:44:58.292Z,94137.28
2023-05-14T06:47:25.282Z,94145.75
2023-05-14T06:49:52.008Z,94141.41
2023-05-14T06:52:18.695Z,94152.00
2023-05-14T06:54:45.395Z,94146.09
2023-05-14T06:57:12.208Z,94137.94
2023-05-14T06:59:38.905Z,94144.00
2023-05-14T07:02:05.642Z,94147.13
2023-05-14T07:04:32.404Z,94146.44
2023-05-14T07:06:59.233Z,94146.47
2023-05-14T07:09:25.953Z,94147.91
2023-05-14T07:11:52.679Z,94146.47
2023-05-14T07:14:19.357Z,94140.75
2023-05-14T07:16:47.085Z,94145.69
2023-05-14T07:19:14.076Z,94148.22
2023-05-14T07:21:40.876Z,94149.81
2023-05-14T07:24:07.738Z,94146.00
2023-05-14T07:26:34.470Z,94151.38
2023-05-14T07:29:01.137Z,94138.50
2023-05-14T07:31:27.844Z,94140.63
2023-05-14T07:33:55.001Z,94139.84
2023-05-14T07:36:22.188Z,94133.78
2023-05-14T07:38:48.911Z,94135.91
2023-05-14T07:41:15.845Z,94135.03
2023-05-14T07:43:42.497Z,94127.19
2023-05-14T07:46:09.292Z,94136.81
2023-05-14T07:48:35.978Z,94139.38
2023-05-14T07:51:02.701Z,94139.16
2023-05-14T07:53:29.838Z,94136.03
2023-05-14T07:55:56.564Z,94141.41
2023-05-14T07:58:23.622Z,94142.97
2023-05-14T08:00:50.432Z,94139.72
2023-05-14T08:03:17.259Z,94148.88
2023-05-14T08:05:43.966Z,94145.72
2023-05-14T08:08:10.836Z,94149.19
2023-05-14T08:10:37.518Z,94144.88
2023-05-14T08:13:04.250Z,94144.94
2023-05-14T08:15:30.987Z,94130.84
2023-05-14T08:18:03.148Z,94135.66
2023-05-14T08:20:31.209Z,94121.84
2023-05-14T08:22:58.222Z,94134.25
2023-05-14T08:25:25.129Z,94137.06
2023-05-14T08:27:51.858Z,94115.38
2023-05-14T08:30:18.511Z,94130.50
2023-05-14T08:32:45.868Z,94131.50
2023-05-14T08:35:12.730Z,94127.47
2023-05-14T08:37:39.479Z,94117.59
2023-05-14T08:40:08.775Z,94114.75
2023-05-14T08:42:40.557Z,94130.53
2023-05-14T08:45:13.784Z,94114.34
2023-05-14T08:47:40.609Z,94121.97
2023-05-14T08:50:08.389Z,94125.69
2023-05-14T08:52:35.572Z,94128.72
2023-05-14T08:55:06.612Z,94115.53
2023-05-14T08:57:34.473Z,94115.25
2023-05-14T09:00:04.540Z,94116.63
2023-05-14T09:02:32.286Z,94123.91
2023-05-14T09:05:00.933Z,94120.44
2023-05-14T09:07:28.166Z,94107.28
2023-05-14T09:09:55.725Z,94115.47
2023-05-14T09:12:22.961Z,94109.31
2023-05-14T09:14:51.032Z,94109.75
2023-05-14T09:17:18.802Z,94107.22
2023-05-14T09:19:49.154Z,94123.16
2023-05-14T09:22:17.622Z,94121.25
2023-05-14T09:24:45.000Z,94113.59
2023-05-14T09:27:21.455Z,94105.88
2023-05-14T09:29:48.587Z,94104.50
2023-05-14T09:32:15.349Z,94099.31
2023-05-14T09:34:42.391Z,94098.16
2023-05-14T09:37:09.886Z,94100.94
2023-05-14T09:39:37.657Z,94094.66
2023-05-14T09:42:04.814Z,94087.94
2023-05-14T09:44:31.994Z,94089.22
2023-05-14T09:46:58.939Z,94096.81
2023-05-14T09:49:25.995Z,94089.31
2023-05-14T09:51:52.834Z,94081.97
2023-05-14T09:54:19.730Z,94087.09
2023-05-14T09:56:46.429Z,94079.03
2023-05-14T09:59:13.254Z,94074.72
2023-05-14T10:01:43.006Z,94072.91
2023-05-14T10:04:11.160Z,94071.38
2023-05-14T10:06:39.334Z,94064.00
2023-05-14T10:09:13.319Z,94074.97
2023-05-14T10:11:43.591Z,94081.81
2023-05-14T10:14:49.715Z,94079.06
2023-05-14T10:17:19.952Z,94074.22
2023-05-14T10:19:57.136Z,94075.06
2023-05-14T10:22:31.219Z,94079.22
2023-05-14T10:24:58.113Z,94069.28
2023-05-14T10:27:25.179Z,94072.31
2023-05-14T10:29:56.239Z,94054.75
2023-05-14T10:32:25.754Z,94071.41
2023-05-14T10:34:53.559Z,94067.09
2023-05-14T10:37:25.932Z,94065.13
2023-05-14T10:40:01.780Z,94071.16
2023-05-14T10:42:33.517Z,94069.38
2023-05-14T10:45:02.620Z,94063.78
2023-05-14T10:47:29.720Z,94063.16
2023-05-14T10:49:59.394Z,94048.59
2023-05-14T10:52:26.716Z,94048.47
2023-05-14T10:55:14.987Z,94039.09
2023-05-14T10:57:43.425Z,94038.38
2023-05-14T11:00:12.582Z,94033.56
2023-05-14T11:02:41.462Z,94029.31
2023-05-14T11:05:15.488Z,94024.09
2023-05-14T11:07:45.120Z,94037.72
2023-05-14T11:10:13.975Z,94027.59
2023-05-14T11:12:43.460Z,94025.56
2023-05-14T11:15:11.888Z,94021.75
2023-05-14T11:17:41.325Z,94025.28
2023-05-14T11:20:09.546Z,94028.84
2023-05-14T11:22:38.214Z,94007.44
2023-05-14T11:25:06.325Z,94024.91
2023-05-14T11:27:38.692Z,94013.97
2023-05-14T11:30:11.964Z,94005.72
2023-05-14T11:32:38.659Z,94016.31
2023-05-14T11:35:05.965Z,94013.31
2023-05-14T11:37:32.782Z,94008.25
2023-05-14T11:40:01.748Z,94012.81
2023-05-14T11:42:28.472Z,94002.13
2023-05-14T11:44:55.178Z,94012.84
2023-05-14T11:47:22.565Z,93998.69
2023-05-14T11:49:49.776Z,94000.09
2023-05-14T11:52:19.494Z,93999.66
2023-05-14T11:54:47.047Z,93996.88
2023-05-14T11:57:16.618Z,93995.59
2023-05-14T11:59:43.654Z,93996.56
2023-05-14T12:02:12.654Z,93999.44
2023-05-14T12:04:39.989Z,93987.66
2023-05-14T12:07:14.739Z,93987.16
2023-05-14T12:09:50.125Z,93994.31
2023-05-14T12:12:25.881Z,93982.78
2023-05-14T12:14:52.975Z,93989.22
2023-05-14T12:17:21.735Z,93989.53
2023-05-14T12:19:52.279Z,93982.06
2023-05-14T12:22:21.145Z,93975.78
2023-05-14T12:24:59.018Z,93983.19
2023-05-14T12:27:27.313Z,93974.59
2023-05-14T12:30:19.893Z,93968.53
2023-05-14T12:32:51.465Z,93972.09
2023-05-14T12:35:18.920Z,93969.69
2023-05-14T12:37:45.681Z,93969.56
2023-05-14T12:40:12.732Z,93973.34
2023-05-14T12:42:39.343Z,93963.16
2023-05-14T12:45:08.526Z,93960.31
2023-05-14T12:47:36.505Z,93955.91
2023-05-14T12:50:03.570Z,93955.72
2023-05-14T12:52:37.666Z,93962.50
2023-05-14T12:55:07.583Z,93968.81
2023-05-14T12:57:35.628Z,93961.06
2023-05-14T13:00:02.839Z,93966.13
2023-05-14T13:02:29.489Z,93963.22
2023-05-14T13:04:56.123Z,93962.38
2023-05-14T13:07:23.049Z,93944.03
2023-05-14T13:09:49.664Z,93948.75
2023-05-14T13:12:16.371Z,93933.28
2023-05-14T13:14:42.978Z,93943.31
2023-05-14T13:17:09.777Z,93939.28
2023-05-14T13:19:36.881Z,93932.88
2023-05-14T13:22:03.648Z,93935.38
2023-05-14T13:24:30.377Z,93937.75
2023-05-14T13:26:57.041Z,93927.78
2023-05-14T13:29:24.466Z,93935.22
2023-05-14T13:31:51.140Z,93933.16
2023-05-14T13:34:17.823Z,93923.84
2023-05-14T13:36:44.579Z,93930.81
2023-05-14T13:39:14.529Z,93927.09
2023-05-14T13:41:41.769Z,93925.19
2023-05-14T13:44:08.445Z,93918.13
2023-05-14T13:46:35.169Z,93910.28
2023-05-14T13:49:01.987Z,93912.91
2023-05-14T13:51:28.657Z,93900.72
2023-05-14T13:53:55.702Z,93912.94
2023-05-14T13:56:22.724Z,93905.50
2023-05-14T13:58:49.482Z,93908.19
2023-05-14T14:01:16.160Z,93905.44
2023-05-14T14:03:42.836Z,93899.16
2023-05-14T14:06:09.481Z,93897.41
2023-05-14T14:08:36.282Z,93898.13
2023-05-14T14:11:02.963Z,93895.22
2023-05-14T14:13:29.679Z,93888.59
2023-05-14T14:15:57.507Z,93888.09
2023-05-14T14:18:24.226Z,93888.34
2023-05-14T14:20:50.952Z,93886.78
2023-05-14T14:23:17.665Z,93887.81
2023-05-14T14:25:44.401Z,93885.75
2023-05-14T14:28:11.199Z,93893.78
2023-05-14T14:30:37.943Z,93899.16
2023-05-14T14:33:04.752Z,93889.03
2023-05-14T14:35:33.377Z,93887.84
2023-05-14T14:38:00.059Z,93885.97
2023-05-14T14:40:26.794Z,93891.31
2023-05-14T14:42:53.712Z,93885.84
2023-05-14T14:45:20.428Z,93878.81
2023-05-14T14:47:48.804Z,93887.22
2023-05-14T14:50:15.629Z,93884.94
2023-05-14T14:52:47.996Z,93899.03
2023-05-14T14:55:14.780Z,93885.41
2023-05-14T14:57:41.473Z,93876.03
2023-05-14T15:00:09.321Z,93886.50
2023-05-14T15:02:38.474Z,93883.03
2023-05-14T15:05:06.088Z,93882.06
2023-05-14T15:07:33.056Z,93884.16
2023-05-14T15:09:59.866Z,93883.66
2023-05-14T15:12:26.564Z,93880.78
2023-05-14T15:14:53.243Z,93899.72
2023-05-14T15:17:20.029Z,93889.16
2023-05-14T15:19:46.724Z,93888.78
2023-05-14T15:22:13.564Z,93881.75
2023-05-14T15:24:40.328Z,93883.44
2023-05-14T15:27:07.066Z,93880.53
2023-05-14T15:29:33.694Z,93871.47
2023-05-14T15:32:00.534Z,93877.09
2023-05-14T15:34:27.253Z,93873.25
2023-05-14T15:36:53.915Z,93872.44
2023-05-14T15:39:20.552Z,93876.31
2023-05-14T15:41:47.221Z,93875.09
2023-05-14T15:44:13.887Z,93878.16
2023-05-14T15:46:40.555Z,93884.72
2023-05-14T15:49:07.189Z,93882.31
2023-05-14T15:51:34.342Z,93882.22
2023-05-14T15:54:01.215Z,93886.00
2023-05-14T15:56:27.905Z,93866.56
2023-05-14T15:58:54.584Z,93885.09
2023-05-14T16:01:21.319Z,93882.22
2023-05-14T16:03:48.158Z,93881.44
2023-05-14T16:06:14.952Z,93888.81
2023-05-14T16:08:41.686Z,93881.38
2023-05-14T16:11:08.670Z,93884.53
2023-05-14T16:13:37.751Z,93885.69
2023-05-14T16:16:04.753Z,93881.44
2023-05-14T16:18:31.477Z,93887.72
2023-05-14T16:20:58.193Z,93890.00
2023-05-14T16:23:25.030Z,93889.22
2023-05-14T16:25:51.684Z,93887.31
2023-05-14T16:28:18.461Z,93884.19
2023-05-14T16:30:45.113Z,93888.44
2023-05-14T16:33:11.981Z,93891.97
2023-05-14T16:35:39.458Z,93891.19
2023-05-14T16:38:06.290Z,93895.44
2023-05-14T16:40:32.956Z,93886.44
2023-05-14T16:42:59.607Z,93883.72
2023-05-14T16:45:26.529Z,93891.81
2023-05-14T16:47:54.156Z,93887.00
2023-05-14T16:50:21.080Z,93893.88
2023-05-14T16:52:47.706Z,93881.47
2023-05-14T16:55:14.463Z,93878.97
2023-05-14T16:57:41.196Z,93880.81
2023-05-14T17:00:09.507Z,93881.09
2023-05-14T17:02:36.419Z,93877.53
2023-05-14T17:05:04.140Z,93880.06
2023-05-14T17:07:31.487Z,93879.19
2023-05-14T17:10:00.082Z,93874.16
2023-05-14T17:12:27.076Z,93875.28
2023-05-14T17:14:53.716Z,93866.72
2023-05-14T17:17:20.530Z,93870.66
2023-05-14T17:19:47.217Z,93862.88
2023-05-14T17:22:14.026Z,93874.22
2023-05-14T17:24:40.817Z,93878.97
2023-05-14T17:27:07.827Z,93869.63
2023-05-14T17:29:34.593Z,93869.94
2023-05-14T17:32:03.482Z,93875.69
2023-05-14T17:34:30.563Z,93875.66
2023-05-14T17:36:57.311Z,93885.31
2023-05-14T17:39:23.951Z,93886.09
2023-05-14T17:41:50.683Z,93884.16
2023-05-14T17:44:17.320Z,93891.84
2023-05-14T17:46:45.196Z,93880.53
2023-05-14T17:49:12.003Z,93896.84
2023-05-14T17:51:38.647Z,93896.31
2023-05-14T17:54:05.345Z,93907.69
2023-05-14T17:56:32.230Z,93907.22
2023-05-14T17:58:58.869Z,93909.13
2023-05-14T18:01:25.660Z,93909.81
2023-05-14T18:03:52.497Z,93913.56
2023-05-14T18:06:19.226Z,93910.81
2023-05-14T18:08:45.963Z,93909.16
2023-05-14T18:11:12.601Z,93900.44
2023-05-14T18:13:39.240Z,93906.13
2023-05-14T18:16:06.010Z,93906.78
2023-05-14T18:18:32.715Z,93905.25
2023-05-14T18:20:59.741Z,93914.84
2023-05-14T18:23:26.477Z,93906.47
2023-05-14T18:25:53.305Z,93918.69
2023-05-14T18:28:21.502Z,93916.97
2023-05-14T18:30:49.274Z,93919.38
2023-05-14T18:33:16.052Z,93918.19
2023-05-14T18:35:43.761Z,93918.88
2023-05-14T18:38:11.978Z,93914.09
2023-05-14T18:40:38.639Z,93912.59
2023-05-14T18:43:05.514Z,93926.59
2023-05-14T18:45:32.196Z,93927.84
2023-05-14T18:47:58.929Z,93933.00
2023-05-14T18:50:25.607Z,93935.44
2023-05-14T18:52:52.247Z,93925.63
2023-05-14T18:55:18.888Z,93922.25
2023-05-14T18:57:46.023Z,93934.97
2023-05-14T19:00:13.362Z,93923.59
2023-05-14T19:02:40.076Z,93926.88
2023-05-14T19:05:07.414Z,93921.06
2023-05-14T19:07:34.092Z,93916.75
2023-05-14T19:10:00.767Z,93922.47
2023-05-14T19:12:27.412Z,93928.09
2023-05-14T19:14:54.069Z,93929.03
2023-05-14T19:17:20.787Z,93913.78
2023-05-14T19:19:47.473Z,93937.78
2023-05-14T19:22:14.213Z,93940.31
2023-05-14T19:24:41.072Z,93946.56
2023-05-14T19:27:08.574Z,93932.50
2023-05-14T19:29:36.884Z,93935.72
2023-05-14T19:32:04.703Z,93935.13
2023-05-14T19:34:31.650Z,93938.69
2023-05-14T19:36:58.327Z,93929.66
2023-05-14T19:39:24.995Z,93929.66
2023-05-14T19:41:51.650Z,93930.00
2023-05-14T19:44:18.299Z,93938.16
2023-05-14T19:46:45.340Z,93937.47
2023-05-14T19:49:12.225Z,93936.06
2023-05-14T19:51:38.959Z,93933.81
2023-05-14T19:54:05.905Z,93927.50
2023-05-14T19:56:32.782Z,93938.41
2023-05-14T19:58:59.443Z,93933.38
2023-05-14T20:01:26.868Z,93929.13
2023-05-14T20:03:53.560Z,93933.81
2023-05-14T20:06:20.381Z,93933.03
2023-05-14T20:08:47.075Z,93931.47
2023-05-14T20:11:15.679Z,93924.53
2023-05-14T20:13:42.349Z,93925.41
2023-05-14T20:16:09.184Z,93933.22
2023-05-14T20:18:36.241Z,93931.31
2023-05-14T20:21:03.908Z,93936.50
2023-05-14T20:23:30.669Z,93934.50
2023-05-14T20:25:57.384Z,93932.94
2023-05-14T20:28:24.011Z,93926.78
2023-05-14T20:30:50.731Z,93929.41
2023-05-14T20:33:17.457Z,93925.25
2023-05-14T20:35:44.315Z,93929.13
2023-05-14T20:38:12.848Z,93924.47
2023-05-14T20:40:40.027Z,93917.59
2023-05-14T20:43:06.677Z,93917.59
2023-05-14T20:45:33.473Z,93917.94
2023-05-14T20:48:00.149Z,93911.09
2023-05-14T20:50:27.964Z,93913.88
2023-05-14T20:52:55.386Z,93922.38
2023-05-14T20:55:22.410Z,93908.34
2023-05-14T20:57:49.766Z,93912.84
2023-05-14T21:00:17.015Z,93911.09
2023-05-14T21:02:43.857Z,93907.19
2023-05-14T21:05:10.756Z,93904.84
2023-05-14T21:07:37.595Z,93898.97
2023-05-14T21:10:04.660Z,93906.25
2023-05-14T21:12:31.399Z,93903.63
2023-05-14T21:14:58.021Z,93902.06
2023-05-14T21:17:24.873Z,93907.81
2023-05-14T21:19:51.526Z,93914.31
2023-05-14T21:22:18.193Z,93903.41
2023-05-14T21:24:44.869Z,93910.28
2023-05-14T21:27:11.667Z,93908.44
2023-05-14T21:29:39.671Z,93906.63
2023-05-14T21:32:06.773Z,93910.53
2023-05-14T21:34:33.632Z,93904.50
2023-05-14T21:37:00.505Z,93904.94
2023-05-14T21:39:27.148Z,93906.94
2023-05-14T21:41:53.768Z,93898.19
2023-05-14T21:44:21.821Z,93905.53
2023-05-14T21:46:48.937Z,93896.69
2023-05-14T21:49:15.640Z,93897.75
2023-05-14T21:51:42.904Z,93905.88
2023-05-14T21:54:09.801Z,93899.75
2023-05-14T21:56:37.221Z,93902.44
2023-05-14T21:59:03.955Z,93893.50
2023-05-14T22:01:32.529Z,93893.75
2023-05-14T22:04:00.508Z,93896.88
2023-05-14T22:06:27.233Z,93892.63
2023-05-14T22:08:53.882Z,93892.63
2023-05-14T22:11:21.906Z,93901.13
2023-05-14T22:13:48.618Z,93895.75
2023-05-14T22:16:15.289Z,93887.25
2023-05-14T22:18:42.653Z,93888.38
2023-05-14T22:21:09.570Z,93890.72
2023-05-14T22:23:36.226Z,93893.66
2023-05-14T22:26:03.067Z,93892.78
2023-05-14T22:28:29.702Z,93884.53
2023-05-14T22:30:59.677Z,93890.94
2023-05-14T22:33:26.461Z,93885.91
2023-05-14T22:35:53.278Z,93891.63
2023-05-14T22:38:20.366Z,93883.13
2023-05-14T22:40:47.238Z,93879.91
2023-05-14T22:43:13.973Z,93875.22
2023-05-14T22:45:41.037Z,93881.72
2023-05-14T22:48:08.075Z,93882.41
2023-05-14T22:50:34.773Z,93875.72
2023-05-14T22:53:01.450Z,93878.75
2023-05-14T22:55:28.262Z,93876.72
2023-05-14T22:57:55.063Z,93882.44
2023-05-14T23:00:21.741Z,93872.38
2023-05-14T23:02:48.425Z,93860.78
2023-05-14T23:05:15.357Z,93871.59
2023-05-14T23:07:42.409Z,93863.22
2023-05-14T23:10:09.870Z,93863.66
2023-05-14T23:12:36.636Z,93869.56
2023-05-14T23:15:03.567Z,93861.28
2023-05-14T23:17:30.283Z,93856.25
2023-05-14T23:19:57.249Z,93855.47
2023-05-14T23:22:24.011Z,93851.13
2023-05-14T23:24:50.709Z,93847.31
2023-05-14T23:27:17.569Z,93847.66
2023-05-14T23:29:44.365Z,93845.88
2023-05-14T23:32:11.032Z,93848.50
2023-05-14T23:34:37.750Z,93848.91
2023-05-14T23:37:04.711Z,93840.53
2023-05-14T23:39:31.392Z,93837.16
2023-05-14T23:41:58.230Z,93846.44
2023-05-14T23:44:25.015Z,93836.28
2023-05-14T23:46:51.695Z,93843.47
2023-05-14T23:49:18.449Z,93830.97
2023-05-14T23:51:45.113Z,93836.25
2023-05-14T23:54:12.121Z,93829.97
2023-05-14T23:56:39.004Z,93828.09
2023-05-14T23:59:05.769Z,93823.31
